Time;durP1;ratioP1;P1;durP2;ratioP2;P2;SDS_P1;SDS_P2;PMS_P1;PMS_P2;Temp;Humidity;BMP_temperature;BMP_pressure;BME280_temperature;BME280_humidity;BME280_pressure;Samples;Min_cycle;Max_cycle;Signal;HPM_P1;HPM_P2
2021/06/22 00:00:08;;;;;;;10.30;5.13;;;;;;;-144.99;94.70;52317.66;5086083;28;20201;-73
2021/06/22 00:02:34;;;;;;;4.87;2.80;;;;;;;-144.99;94.81;52350.25;5070474;28;20234;-73
2021/06/22 00:05:01;;;;;;;4.87;3.37;;;;;;;-144.99;94.94;52317.66;5070492;28;20208;-73
2021/06/22 00:07:27;;;;;;;8.17;3.70;;;;;;;-144.99;94.86;52309.50;5082804;28;20219;-73
2021/06/22 00:09:54;;;;;;;8.43;3.20;;;;;;;-144.99;94.87;52350.25;5094082;28;20696;-74
2021/06/22 00:12:22;;;;;;;9.00;4.50;;;;;;;-144.99;95.02;52333.94;5092114;28;20224;-74
2021/06/22 00:14:49;;;;;;;8.37;3.50;;;;;;;-144.99;94.99;52338.03;5090307;28;20322;-73
2021/06/22 00:17:15;;;;;;;8.80;4.20;;;;;;;-144.99;95.04;52366.56;5088861;28;20296;-73
2021/06/22 00:19:42;;;;;;;7.63;3.93;;;;;;;-144.99;94.93;52350.25;5086220;28;20209;-74
2021/06/22 00:22:09;;;;;;;6.63;2.80;;;;;;;-144.99;94.94;52348.22;5081988;28;20265;-73
2021/06/22 00:24:35;;;;;;;15.20;3.80;;;;;;;-144.99;95.06;52329.88;5083261;28;20302;-74
2021/06/22 00:27:02;;;;;;;11.67;4.20;;;;;;;-144.99;95.23;52350.25;5083315;28;20204;-74
2021/06/22 00:29:30;;;;;;;10.10;4.07;;;;;;;-144.99;95.27;52338.03;5089647;28;20216;-73
2021/06/22 00:31:57;;;;;;;7.73;3.07;;;;;;;-144.99;95.25;52346.19;5070209;28;20229;-75
2021/06/22 00:34:23;;;;;;;7.17;4.30;;;;;;;-144.99;95.29;52358.41;5083579;28;20307;-74
2021/06/22 00:36:50;;;;;;;4.70;3.20;;;;;;;-144.99;95.16;52362.50;5088738;28;20298;-73
2021/06/22 00:39:16;;;;;;;15.07;4.23;;;;;;;-144.99;95.23;52378.78;5089004;28;20208;-73
2021/06/22 00:41:43;;;;;;;9.23;3.90;;;;;;;-144.99;95.27;52333.94;5090375;28;20300;-73
2021/06/22 00:44:11;;;;;;;6.60;3.20;;;;;;;-144.99;95.26;52342.09;5090273;28;20310;-73
2021/06/22 00:46:39;;;;;;;8.40;5.00;;;;;;;-144.99;95.41;52317.66;5089543;28;20215;-72
2021/06/22 00:49:07;;;;;;;6.37;3.07;;;;;;;-144.99;95.23;52364.53;5080639;28;20285;-72
2021/06/22 00:51:35;;;;;;;11.77;5.43;;;;;;;-144.99;95.32;52338.03;5089542;28;20290;-73
2021/06/22 00:54:02;;;;;;;14.47;6.57;;;;;;;-144.99;95.35;52354.34;5089777;28;20239;-73
2021/06/22 00:56:30;;;;;;;15.60;4.80;;;;;;;-144.99;95.30;52374.72;5089536;28;20216;-73
2021/06/22 00:58:57;;;;;;;6.93;3.73;;;;;;;-144.99;95.09;52321.72;5082936;28;20205;-73
2021/06/22 01:01:24;;;;;;;12.10;4.40;;;;;;;-144.99;95.19;52329.88;5083091;28;20210;-73
2021/06/22 01:03:52;;;;;;;11.57;4.70;;;;;;;-144.99;95.27;52313.56;5085533;28;20621;-73
2021/06/22 01:06:21;;;;;;;12.60;9.57;;;;;;;-144.99;95.34;52342.09;5080842;28;20244;-74
2021/06/22 01:08:48;;;;;;;8.87;3.50;;;;;;;-144.99;95.23;52333.94;5087964;28;20215;-73
2021/06/22 01:11:15;;;;;;;9.20;4.00;;;;;;;-144.99;95.30;52319.69;5085667;28;20268;-74
2021/06/22 01:13:42;;;;;;;9.17;4.67;;;;;;;-144.99;95.28;52350.25;5090108;28;20246;-74
2021/06/22 01:16:20;;;;;;;9.80;5.70;;;;;;;-144.99;95.18;52354.34;5089475;28;20298;-74
2021/06/22 01:18:47;;;;;;;7.97;3.43;;;;;;;-144.99;95.15;52378.78;5076742;28;20686;-74
2021/06/22 01:21:15;;;;;;;9.53;3.57;;;;;;;-144.99;95.22;52350.25;5074046;28;20203;-74
2021/06/22 01:23:42;;;;;;;7.83;3.90;;;;;;;-144.99;95.19;52342.09;5085815;28;20247;-75
2021/06/22 01:26:10;;;;;;;12.57;6.10;;;;;;;-144.99;95.16;52297.25;5087016;28;20204;-74
2021/06/22 01:28:36;;;;;;;5.90;3.47;;;;;;;-144.99;95.25;52342.09;5072372;28;20298;-75
2021/06/22 01:31:04;;;;;;;12.87;4.17;;;;;;;-144.99;95.16;52374.72;5088072;28;20204;-74
2021/06/22 01:33:30;;;;;;;8.70;4.50;;;;;;;-144.99;95.17;52346.19;5088749;28;20740;-74
2021/06/22 01:35:57;;;;;;;8.27;3.40;;;;;;;-144.99;95.11;52338.03;5089190;28;20212;-73
2021/06/22 01:38:28;;;;;;;5.63;2.93;;;;;;;-144.99;94.97;52333.94;5089525;28;20218;-74
2021/06/22 01:40:54;;;;;;;6.63;3.13;;;;;;;-144.99;95.14;52333.94;5081217;28;20203;-73
2021/06/22 01:43:24;;;;;;;11.37;4.67;;;;;;;-144.99;95.08;52366.56;5069607;28;20256;-73
2021/06/22 01:45:51;;;;;;;6.00;3.00;;;;;;;-144.99;95.16;52309.50;5071219;28;20212;-73
2021/06/22 01:48:18;;;;;;;8.67;3.47;;;;;;;-144.99;95.28;52378.78;5089841;28;20424;-76
2021/06/22 01:50:45;;;;;;;7.10;2.57;;;;;;;-144.99;95.25;52378.78;5087097;28;20438;-74
2021/06/22 01:53:12;;;;;;;10.77;4.93;;;;;;;-144.99;95.06;52301.34;5082285;28;20702;-74
2021/06/22 01:55:41;;;;;;;8.13;3.20;;;;;;;-144.99;95.25;52317.66;5081688;28;20715;-74
2021/06/22 01:58:10;;;;;;;7.70;3.57;;;;;;;-144.99;95.26;52378.78;5069466;28;20213;-74
2021/06/22 02:00:38;;;;;;;7.77;3.00;;;;;;;-144.99;95.07;52362.50;5069647;28;20244;-74
2021/06/22 02:03:06;;;;;;;8.97;3.73;;;;;;;-144.99;95.25;52325.81;5079767;28;20219;-73
2021/06/22 02:05:33;;;;;;;8.47;3.27;;;;;;;-144.99;95.30;52346.19;5089594;28;20210;-73
2021/06/22 02:08:00;;;;;;;5.97;3.07;;;;;;;-144.99;95.30;52366.56;5089477;28;20220;-73
2021/06/22 02:10:26;;;;;;;6.87;3.63;;;;;;;-144.99;95.34;52342.09;5091440;28;20267;-74
2021/06/22 02:12:54;;;;;;;9.03;3.63;;;;;;;-144.99;95.20;52342.09;5093237;28;20590;-73
2021/06/22 02:15:21;;;;;;;6.77;3.43;;;;;;;-144.99;95.32;52378.78;5080007;28;20224;-73
2021/06/22 02:17:48;;;;;;;11.10;5.43;;;;;;;-144.99;95.29;52325.81;5079536;28;20200;-73
2021/06/22 02:20:16;;;;;;;6.47;3.43;;;;;;;-144.99;95.32;52331.91;5075314;28;20193;-74
2021/06/22 02:22:42;;;;;;;8.70;4.80;;;;;;;-144.99;95.41;52354.34;5084221;28;20217;-74
2021/06/22 02:25:11;;;;;;;10.47;3.37;;;;;;;-144.99;95.18;52350.25;5085415;28;20204;-74
2021/06/22 02:27:39;;;;;;;9.30;4.43;;;;;;;-144.99;95.09;52346.19;5081068;28;20255;-74
2021/06/22 02:30:11;;;;;;;9.33;4.03;;;;;;;-144.99;94.88;52358.41;5078011;28;20351;-74
2021/06/22 02:32:38;;;;;;;3.63;2.57;;;;;;;-144.99;94.95;52333.94;5089345;28;20694;-74
2021/06/22 02:35:07;;;;;;;5.40;3.40;;;;;;;-144.99;94.94;52366.56;5092902;28;20257;-75
2021/06/22 02:37:34;;;;;;;9.27;3.23;;;;;;;-144.99;94.83;52333.94;5092773;28;20235;-73
2021/06/22 02:40:01;;;;;;;7.57;3.03;;;;;;;-144.99;94.91;52354.34;5092545;28;20694;-73
2021/06/22 02:42:28;;;;;;;12.00;3.57;;;;;;;-144.99;94.85;52305.41;5090175;28;20201;-73
2021/06/22 02:44:54;;;;;;;8.30;3.80;;;;;;;-144.99;94.86;52342.09;5087394;28;20220;-73
2021/06/22 02:47:23;;;;;;;7.53;3.80;;;;;;;-144.99;95.08;52313.56;5092608;28;20567;-73
2021/06/22 02:49:50;;;;;;;7.23;3.20;;;;;;;-144.99;94.88;52329.88;5092191;28;20212;-73
2021/06/22 02:52:17;;;;;;;7.30;3.10;;;;;;;-144.99;94.90;52317.66;5089655;28;20240;-73
2021/06/22 02:54:43;;;;;;;5.43;3.27;;;;;;;-144.99;94.90;52370.63;5078666;28;20611;-74
2021/06/22 02:57:11;;;;;;;9.17;5.20;;;;;;;-144.99;94.92;52338.03;5088894;28;20204;-73
2021/06/22 02:59:39;;;;;;;7.57;3.27;;;;;;;-144.99;94.86;52346.19;5091999;28;20212;-73
2021/06/22 03:02:07;;;;;;;7.83;3.33;;;;;;;-144.99;94.95;52329.88;5087228;28;20201;-73
2021/06/22 03:04:36;;;;;;;4.90;3.27;;;;;;;-144.99;94.93;52309.50;5085506;28;20248;-73
2021/06/22 03:07:03;;;;;;;10.90;3.37;;;;;;;-144.99;94.94;52338.03;5094408;28;20196;-73
2021/06/22 03:09:29;;;;;;;9.57;4.87;;;;;;;-144.99;94.90;52317.66;5092308;28;20292;-73
2021/06/22 03:11:56;;;;;;;7.80;3.27;;;;;;;-144.99;94.95;52305.41;5087635;28;20304;-73
2021/06/22 03:14:24;;;;;;;6.97;2.70;;;;;;;-144.99;94.82;52321.72;5089330;28;20251;-74
2021/06/22 03:16:51;;;;;;;8.30;3.87;;;;;;;-144.99;94.73;52338.03;5084427;28;20256;-74
2021/06/22 03:19:19;;;;;;;7.97;5.60;;;;;;;-144.99;94.73;52338.03;5084494;28;20246;-74
2021/06/22 03:21:47;;;;;;;5.20;2.80;;;;;;;-144.99;94.66;52374.72;5081219;28;20201;-74
2021/06/22 03:24:15;;;;;;;9.53;3.40;;;;;;;-144.99;94.64;52338.03;5082285;28;20255;-74
2021/06/22 03:26:42;;;;;;;6.60;3.37;;;;;;;-144.99;94.77;52356.38;5077940;28;20680;-74
2021/06/22 03:29:09;;;;;;;7.53;3.53;;;;;;;-144.99;94.47;52358.41;5083803;28;20223;-75
2021/06/22 03:31:36;;;;;;;11.90;6.20;;;;;;;-144.99;94.32;52338.03;5086828;28;20205;-74
2021/06/22 03:34:04;;;;;;;9.33;3.77;;;;;;;-144.99;94.46;52350.25;5087488;28;20314;-74
2021/06/22 03:36:31;;;;;;;6.87;3.00;;;;;;;-144.99;94.41;52358.41;5090276;28;20204;-75
2021/06/22 03:38:59;;;;;;;4.97;2.70;;;;;;;-144.99;94.45;52354.34;5080598;28;20215;-75
2021/06/22 03:41:25;;;;;;;7.37;2.83;;;;;;;-144.99;94.52;52336.00;5084191;28;20364;-74
2021/06/22 03:43:52;;;;;;;12.13;4.13;;;;;;;-144.99;94.10;52354.34;5089816;28;20224;-75
2021/06/22 03:46:19;;;;;;;6.97;2.93;;;;;;;-144.99;93.86;52382.88;5087324;28;20208;-74
2021/06/22 03:48:46;;;;;;;9.23;2.80;;;;;;;-144.99;93.76;52354.34;5077520;28;20208;-74
2021/06/22 03:51:13;;;;;;;9.77;3.40;;;;;;;-144.99;93.76;52342.09;5090576;28;20243;-74
2021/06/22 03:53:42;;;;;;;7.00;4.37;;;;;;;-144.99;93.85;52358.41;5086398;28;21705;-74
2021/06/22 03:56:10;;;;;;;6.73;3.07;;;;;;;-144.99;94.08;52333.94;5082134;28;20429;-73
2021/06/22 03:58:37;;;;;;;12.00;4.70;;;;;;;-144.99;94.04;52342.09;5081921;28;20624;-74
2021/06/22 04:01:05;;;;;;;13.27;4.33;;;;;;;-144.99;94.35;52350.25;5070499;28;20217;-72
2021/06/22 04:05:59;;;;;;;10.37;3.60;;;;;;;-144.99;94.71;52354.34;5006752;28;20565;-77
2021/06/22 04:08:26;;;;;;;8.50;3.93;;;;;;;-144.99;94.61;52342.09;5054863;28;20237;-79
2021/06/22 04:10:53;;;;;;;8.40;4.17;;;;;;;-144.99;94.62;52346.19;5029516;28;20187;-82
2021/06/22 04:13:21;;;;;;;5.57;2.50;;;;;;;-144.99;94.81;52340.06;5023361;28;20230;-82
2021/06/22 04:15:48;;;;;;;10.27;3.97;;;;;;;-144.99;94.74;52378.78;5047750;27;20269;-80
2021/06/22 04:18:15;;;;;;;8.27;3.20;;;;;;;-144.99;94.79;52358.41;5040442;28;20194;-77
2021/06/22 04:20:41;;;;;;;9.87;3.50;;;;;;;-144.99;95.08;52331.91;5031407;28;20211;-78
2021/06/22 04:23:08;;;;;;;6.30;3.07;;;;;;;-144.99;95.63;52382.88;5013921;28;20236;-78
2021/06/22 04:25:35;;;;;;;9.13;3.77;;;;;;;-144.99;95.24;52350.25;5039697;27;20256;-75
2021/06/22 04:28:03;;;;;;;7.63;2.67;;;;;;;-144.99;95.62;52313.56;5026617;28;20293;-75
2021/06/22 04:30:32;;;;;;;7.70;3.10;;;;;;;-144.99;95.56;52342.09;5025335;28;20215;-75
2021/06/22 04:33:00;;;;;;;7.73;2.83;;;;;;;-144.99;95.51;52386.94;5013185;28;20244;-76
2021/06/22 04:35:29;;;;;;;10.93;4.60;;;;;;;-144.99;95.92;52329.88;5031697;27;20223;-75
2021/06/22 04:37:56;;;;;;;5.87;2.97;;;;;;;-144.99;95.73;52372.69;5022745;28;20203;-75
2021/06/22 04:40:23;;;;;;;6.20;3.27;;;;;;;-144.99;95.97;52374.72;5030719;28;20216;-76
2021/06/22 04:42:49;;;;;;;9.93;3.60;;;;;;;-144.99;95.95;52362.50;5037954;28;20225;-76
2021/06/22 04:45:16;;;;;;;12.73;2.90;;;;;;;-144.99;95.56;52333.94;5024099;28;20236;-76
2021/06/22 04:47:44;;;;;;;8.03;3.93;;;;;;;-144.99;95.27;52374.72;5055049;27;20207;-76
2021/06/22 04:50:11;;;;;;;7.93;3.37;;;;;;;-144.99;95.22;52325.81;5025303;28;20646;-76
2021/06/22 04:52:38;;;;;;;9.07;2.47;;;;;;;-144.99;95.53;52329.88;5025317;28;20591;-76
2021/06/22 04:55:12;;;;;;;6.17;2.27;;;;;;;-144.99;95.16;52325.81;5008114;28;20730;-75
2021/06/22 04:57:38;;;;;;;6.63;2.90;;;;;;;-144.99;95.27;52327.84;5042149;27;20199;-75
2021/06/22 05:00:06;;;;;;;8.43;3.53;;;;;;;-144.99;95.08;52276.88;5108935;27;20316;-77
2021/06/22 05:02:34;;;;;;;10.03;2.83;;;;;;;-144.99;94.45;52297.25;5026915;28;20303;-78
2021/06/22 05:05:03;;;;;;;5.30;3.20;;;;;;;-144.99;93.83;52336.00;5027318;28;20270;-77
2021/06/22 05:07:30;;;;;;;8.37;2.63;;;;;;;-144.99;93.48;52325.81;5059903;27;20641;-77
2021/06/22 05:09:57;;;;;;;7.10;3.00;;;;;;;-144.99;92.80;52301.34;5025137;27;20264;-77
2021/06/22 05:12:24;;;;;;;7.13;3.27;;;;;;;-144.99;92.37;52329.88;3985505;28;10000710;-77
2021/06/22 05:14:51;;;;;;;7.57;2.93;;;;;;;-144.99;91.75;52325.81;5014569;28;20756;-79
2021/06/22 05:17:17;;;;;;;9.37;2.33;;;;;;;-144.99;91.09;52305.41;5029947;27;20208;-78
2021/06/22 05:19:44;;;;;;;9.33;2.40;;;;;;;-144.99;90.86;52305.41;5047139;27;20209;-77
2021/06/22 05:22:12;;;;;;;5.30;3.17;;;;;;;-144.99;90.44;52315.59;5021091;28;20217;-77
2021/06/22 05:24:39;;;;;;;3.10;2.07;;;;;;;-144.99;89.91;52370.63;5022274;28;20600;-76
2021/06/22 05:27:07;;;;;;;11.20;3.23;;;;;;;-144.99;89.40;52329.88;5060815;27;20210;-75
2021/06/22 05:29:34;;;;;;;4.60;2.90;;;;;;;-144.99;88.89;52311.53;5019571;28;20207;-73
2021/06/22 05:32:01;;;;;;;8.47;3.60;;;;;;;-144.99;88.38;52309.50;5006919;28;20218;-73
2021/06/22 05:34:27;;;;;;;8.87;4.40;;;;;;;-144.99;86.65;52297.25;5020055;28;20233;-73
2021/06/22 05:36:54;;;;;;;8.30;2.70;;;;;;;-144.99;86.83;52329.88;5046678;27;20562;-73
2021/06/22 05:39:23;;;;;;;15.93;4.17;;;;;;;-144.99;86.11;52289.13;5033788;27;20202;-73
2021/06/22 05:41:50;;;;;;;7.77;3.67;;;;;;;-144.99;85.57;52305.41;5003559;28;20217;-73
2021/06/22 05:44:17;;;;;;;7.70;3.20;;;;;;;-144.99;84.68;52285.03;5002900;28;20242;-74
2021/06/22 05:46:44;;;;;;;7.67;4.07;;;;;;;-144.99;83.53;52305.41;5018785;27;20236;-73
2021/06/22 05:49:10;;;;;;;6.33;2.97;;;;;;;-144.99;82.79;52305.41;5042118;28;20261;-74
2021/06/22 05:51:37;;;;;;;9.27;3.57;;;;;;;-144.99;81.47;52307.47;5004483;28;20217;-74
2021/06/22 05:54:04;;;;;;;9.17;2.27;;;;;;;-144.99;79.94;52293.19;5018895;28;20240;-73
2021/06/22 05:56:32;;;;;;;7.70;3.03;;;;;;;-144.99;78.84;52338.03;5016183;28;20206;-73
2021/06/22 05:58:59;;;;;;;8.73;3.13;;;;;;;-144.99;77.96;52299.31;5036099;28;20354;-74
2021/06/22 06:01:25;;;;;;;6.80;2.50;;;;;;;-144.99;77.16;52346.19;5022476;28;20229;-74
2021/06/22 06:03:52;;;;;;;4.13;2.43;;;;;;;-144.99;75.63;52297.25;5023227;28;20233;-75
2021/06/22 06:06:19;;;;;;;8.50;3.50;;;;;;;-144.99;75.21;52278.91;5022373;28;20589;-75
2021/06/22 06:08:46;;;;;;;7.17;2.77;;;;;;;-144.99;74.76;52278.91;5061276;28;20218;-74
2021/06/22 06:11:13;;;;;;;15.63;3.93;;;;;;;-144.99;74.64;52280.97;5017918;28;20218;-75
2021/06/22 06:13:41;;;;;;;9.73;3.33;;;;;;;-144.99;74.20;52280.97;5024147;28;20266;-77
2021/06/22 06:16:08;;;;;;;13.17;3.30;;;;;;;-144.99;73.92;52289.13;5010916;28;20206;-76
2021/06/22 06:18:35;;;;;;;6.87;3.40;;;;;;;-144.99;73.56;52321.72;5050204;28;20308;-75
2021/06/22 06:21:02;;;;;;;5.97;3.93;;;;;;;-144.99;73.47;52285.03;5021123;28;20211;-75
2021/06/22 06:23:31;;;;;;;12.73;4.33;;;;;;;-144.99;73.24;52309.50;5010933;28;20294;-78
2021/06/22 06:25:58;;;;;;;5.63;2.53;;;;;;;-144.99;73.39;52305.41;5017340;28;20214;-76
2021/06/22 06:28:26;;;;;;;10.10;3.43;;;;;;;-144.99;73.17;52333.94;5031045;28;20213;-74
2021/06/22 06:30:54;;;;;;;8.07;3.50;;;;;;;-144.99;73.24;52301.34;5014051;28;20629;-75
2021/06/22 06:33:21;;;;;;;7.50;3.47;;;;;;;-144.99;73.35;52293.19;5012109;28;20691;-75
2021/06/22 06:35:51;;;;;;;16.17;3.33;;;;;;;-144.99;72.74;52309.50;5009518;28;20307;-75
2021/06/22 06:38:20;;;;;;;9.53;4.40;;;;;;;-144.99;72.06;52289.13;5027769;28;20684;-77
2021/06/22 06:40:46;;;;;;;14.27;3.70;;;;;;;-144.99;71.79;52293.19;5012204;28;20230;-76
2021/06/22 06:43:13;;;;;;;5.77;3.40;;;;;;;-144.99;72.06;52289.13;5021550;28;20218;-74
2021/06/22 06:45:40;;;;;;;6.43;2.13;;;;;;;-144.99;71.65;52264.66;5025374;28;20999;-75
2021/06/22 06:48:09;;;;;;;9.40;3.07;;;;;;;-144.99;70.01;52293.19;5049241;28;20206;-76
2021/06/22 06:50:36;;;;;;;9.13;3.50;;;;;;;-144.99;69.40;52283.00;5016808;28;20216;-76
2021/06/22 06:53:03;;;;;;;11.37;2.70;;;;;;;-144.99;68.49;52276.88;5019653;28;20225;-76
2021/06/22 06:55:35;;;;;;;6.30;2.27;;;;;;;-144.99;67.43;52276.88;5020420;28;20297;-77
2021/06/22 06:58:04;;;;;;;11.33;2.63;;;;;;;-144.99;67.00;52280.97;5035329;27;20792;-75
2021/06/22 07:00:34;;;;;;;9.80;3.03;;;;;;;-144.99;66.81;52311.53;5028016;27;20238;-74
2021/06/22 07:03:02;;;;;;;10.53;3.03;;;;;;;-144.99;66.75;52272.81;5027727;28;20653;-77
2021/06/22 07:05:30;;;;;;;9.77;3.13;;;;;;;-144.99;66.59;52280.97;5029885;28;20250;-76
2021/06/22 07:07:58;;;;;;;8.67;3.90;;;;;;;-144.99;66.71;52311.53;5054648;27;20231;-75
2021/06/22 07:10:24;;;;;;;5.50;3.10;;;;;;;-144.99;67.39;52268.72;5038886;27;20237;-76
2021/06/22 07:12:53;;;;;;;10.63;4.20;;;;;;;-144.99;67.41;52283.00;5027706;28;20221;-76
2021/06/22 07:15:21;;;;;;;5.87;3.10;;;;;;;-144.99;67.48;52280.97;5027772;28;20230;-75
2021/06/22 07:17:47;;;;;;;10.80;4.23;;;;;;;-144.99;67.18;52264.66;5025771;28;20262;-76
2021/06/22 07:20:15;;;;;;;4.63;2.53;;;;;;;-144.99;65.76;52270.78;5017441;28;20295;-74
2021/06/22 07:22:43;;;;;;;3.93;2.77;;;;;;;-144.99;65.14;52248.34;5015420;28;20212;-76
2021/06/22 07:25:11;;;;;;;8.30;4.03;;;;;;;-144.99;64.92;52264.66;5017496;28;20265;-75
2021/06/22 07:27:37;;;;;;;8.97;2.90;;;;;;;-144.99;65.02;52248.34;5026094;28;20220;-75
2021/06/22 07:30:05;;;;;;;7.27;2.80;;;;;;;-144.99;64.33;52260.56;5020446;27;20261;-75
2021/06/22 07:32:32;;;;;;;11.30;5.40;;;;;;;-144.99;63.82;52264.66;5019705;28;20289;-74
2021/06/22 07:34:58;;;;;;;5.80;3.07;;;;;;;-144.99;63.19;52307.47;5025983;28;20247;-75
2021/06/22 07:37:25;;;;;;;4.93;2.30;;;;;;;-144.99;63.10;52285.03;5026590;28;20198;-74
2021/06/22 07:39:53;;;;;;;6.90;2.40;;;;;;;-144.99;62.98;52285.03;5044195;28;20709;-75
2021/06/22 07:42:20;;;;;;;4.27;1.77;;;;;;;-144.99;62.58;52276.88;5016388;28;20228;-76
2021/06/22 07:44:46;;;;;;;9.67;2.33;;;;;;;-144.99;62.02;52276.88;5005617;28;20254;-74
2021/06/22 07:47:13;;;;;;;6.93;2.47;;;;;;;-144.99;61.02;52293.19;5013792;28;20230;-76
2021/06/22 07:49:40;;;;;;;7.03;2.77;;;;;;;-144.99;60.39;52254.47;5039066;27;20217;-74
2021/06/22 07:52:07;;;;;;;3.00;1.40;;;;;;;-144.99;61.56;52289.13;5024659;28;20291;-73
2021/06/22 07:54:34;;;;;;;7.83;5.63;;;;;;;-144.99;61.38;52301.34;5014991;27;20239;-73
2021/06/22 07:57:02;;;;;;;10.93;2.47;;;;;;;-144.99;61.90;52227.97;5018400;28;20230;-75
2021/06/22 07:59:29;;;;;;;8.63;2.63;;;;;;;-144.99;61.47;52260.56;5020047;27;20227;-74
2021/06/22 08:01:56;;;;;;;5.97;2.97;;;;;;;-144.99;61.06;52268.72;5055546;27;20775;-73
2021/06/22 08:04:22;;;;;;;10.10;3.57;;;;;;;-144.99;59.49;52313.56;5007620;28;20256;-74
2021/06/22 08:06:52;;;;;;;8.80;2.13;;;;;;;-144.99;59.55;52244.28;5004464;28;20237;-72
2021/06/22 08:09:19;;;;;;;10.60;6.30;;;;;;;-144.99;58.52;52252.44;5006155;28;20304;-73
2021/06/22 08:11:45;;;;;;;8.33;2.83;;;;;;;-144.99;57.87;52230.00;5043495;27;20213;-73
2021/06/22 08:14:14;;;;;;;7.80;3.23;;;;;;;-144.99;57.24;52264.66;5024587;28;20713;-74
2021/06/22 08:16:41;;;;;;;6.60;2.40;;;;;;;-144.99;57.10;52248.34;5026086;28;20231;-75
2021/06/22 08:19:07;;;;;;;5.10;2.30;;;;;;;-144.99;57.26;52264.66;5026161;28;20249;-76
2021/06/22 08:21:34;;;;;;;8.70;1.90;;;;;;;-144.99;57.68;52268.72;5015221;28;20222;-76
2021/06/22 08:24:01;;;;;;;4.60;2.10;;;;;;;-144.99;57.74;52285.03;5019395;28;20231;-74
2021/06/22 08:26:28;;;;;;;8.60;2.13;;;;;;;-144.99;58.02;52285.03;5031373;28;20296;-72
2021/06/22 08:28:54;;;;;;;8.00;3.00;;;;;;;-144.99;58.32;52287.06;5012926;28;20233;-76
2021/06/22 08:31:23;;;;;;;11.10;4.97;;;;;;;-144.99;58.36;52260.56;5053963;27;20281;-75
2021/06/22 08:33:50;;;;;;;6.80;2.77;;;;;;;-144.99;58.70;52256.50;5023546;28;20209;-72
2021/06/22 08:36:16;;;;;;;7.27;2.13;;;;;;;-144.99;58.75;52303.38;5007256;28;20300;-75
2021/06/22 08:38:43;;;;;;;7.63;2.53;;;;;;;-144.99;58.70;52264.66;5005733;28;20227;-78
2021/06/22 08:41:10;;;;;;;7.23;2.80;;;;;;;-144.99;58.29;52264.66;5012996;28;20244;-74
2021/06/22 08:43:37;;;;;;;5.73;2.87;;;;;;;-144.99;57.39;52264.66;5019690;28;20531;-74
2021/06/22 08:46:05;;;;;;;6.97;3.10;;;;;;;-144.99;56.42;52250.38;5014589;28;20342;-74
2021/06/22 08:48:34;;;;;;;6.43;2.80;;;;;;;-144.99;55.64;52258.53;5005685;28;20277;-74
2021/06/22 08:51:01;;;;;;;5.70;2.50;;;;;;;-144.99;55.16;52280.97;5005138;28;20216;-75
2021/06/22 08:53:28;;;;;;;5.90;2.23;;;;;;;-144.99;55.20;52276.88;5058167;27;20357;-75
2021/06/22 08:55:55;;;;;;;3.60;2.00;;;;;;;-144.99;56.02;52289.13;5019763;28;20251;-76
2021/06/22 08:58:22;;;;;;;5.37;2.70;;;;;;;-144.99;56.13;52313.56;5024179;28;20228;-76
2021/06/22 09:00:51;;;;;;;7.00;3.13;;;;;;;-144.99;56.64;52301.34;5025331;28;20214;-73
2021/06/22 09:03:22;;;;;;;8.50;2.47;;;;;;;-144.99;57.11;52227.97;5037357;27;20288;-76
2021/06/22 09:05:54;;;;;;;7.10;2.03;;;;;;;-144.99;56.88;52256.50;5025070;28;20235;-77
2021/06/22 09:08:22;;;;;;;8.03;4.43;;;;;;;-144.99;57.85;52266.69;5025484;28;20623;-77
2021/06/22 09:10:52;;;;;;;6.73;1.97;;;;;;;-144.99;55.71;52264.66;5009684;28;20408;-75
2021/06/22 09:13:22;;;;;;;5.37;2.37;;;;;;;-144.99;55.16;52268.72;5028603;27;20232;-75
2021/06/22 09:15:51;;;;;;;6.40;2.47;;;;;;;-144.99;55.28;52223.88;5021608;28;20328;-72
2021/06/22 09:18:29;;;;;;;8.07;2.30;;;;;;;-144.99;55.48;52264.66;5025175;28;20217;-75
2021/06/22 09:20:59;;;;;;;7.97;3.40;;;;;;;-144.99;55.85;52254.47;5023838;28;20213;-74
2021/06/22 09:23:28;;;;;;;9.23;4.17;;;;;;;-144.99;56.34;52276.88;5024904;27;20652;-74
2021/06/22 09:25:56;;;;;;;9.90;2.77;;;;;;;-144.99;55.86;52280.97;5047129;27;20223;-75
2021/06/22 09:28:25;;;;;;;8.50;2.97;;;;;;;-144.99;55.63;52268.72;5036130;27;20221;-75
2021/06/22 09:30:55;;;;;;;7.80;2.90;;;;;;;-144.99;56.48;52248.34;5021081;28;20231;-79
2021/06/22 09:33:24;;;;;;;6.93;3.50;;;;;;;-144.99;55.31;52264.66;5039623;27;20229;-77
2021/06/22 09:36:00;;;;;;;8.87;3.67;;;;;;;-144.99;55.06;52260.56;5021619;28;20293;-75
2021/06/22 09:38:29;;;;;;;10.77;2.57;;;;;;;-144.99;55.24;52280.97;5024722;28;20217;-74
2021/06/22 09:41:15;;;;;;;7.60;2.53;;;;;;;-144.99;56.62;52285.03;5024660;28;20226;-75
2021/06/22 09:43:44;;;;;;;8.93;2.90;;;;;;;-144.99;56.21;52272.81;5031511;27;20523;-75
2021/06/22 09:46:13;;;;;;;8.47;2.50;;;;;;;-144.99;55.75;52272.81;5043773;27;20460;-75
2021/06/22 09:48:52;;;;;;;7.60;2.63;;;;;;;-144.99;56.05;52223.88;5019032;28;20225;-76
2021/06/22 09:51:28;;;;;;;6.70;2.87;;;;;;;-144.99;55.37;52276.88;5007042;28;20227;-77
2021/06/22 09:53:55;;;;;;;7.17;2.73;;;;;;;-144.99;55.58;52227.97;5029557;27;20226;-75
2021/06/22 09:56:25;;;;;;;12.73;2.10;;;;;;;-144.99;55.50;52256.50;5043283;28;20247;-74
2021/06/22 09:58:52;;;;;;;9.93;2.83;;;;;;;-144.99;54.78;52240.19;5013527;28;20666;-77
2021/06/22 10:01:34;;;;;;;10.60;2.63;;;;;;;-144.99;53.94;52227.97;5004229;28;20251;-74
2021/06/22 10:04:16;;;;;;;11.73;4.23;;;;;;;-144.99;53.64;52244.28;5006731;28;20257;-76
2021/06/22 10:06:49;;;;;;;9.20;4.17;;;;;;;-144.99;53.58;52219.81;5080240;28;20330;-74
2021/06/22 10:09:19;;;;;;;11.87;3.87;;;;;;;-144.99;53.78;52268.72;5014894;28;20707;-75
2021/06/22 10:11:46;;;;;;;9.27;2.63;;;;;;;-144.99;53.55;52252.44;5012329;28;20219;-76
2021/06/22 10:14:27;;;;;;;12.30;2.27;;;;;;;-144.99;53.33;52240.19;5019798;28;20337;-74
2021/06/22 10:16:54;;;;;;;16.90;5.07;;;;;;;-144.99;53.51;52285.03;5049571;28;20300;-75
2021/06/22 10:19:23;;;;;;;6.37;1.90;;;;;;;-144.99;52.70;52236.13;5014191;28;20610;-73
2021/06/22 10:21:52;;;;;;;5.63;2.20;;;;;;;-144.99;52.12;52250.38;5008797;28;20249;-75
2021/06/22 10:24:19;;;;;;;8.47;2.83;;;;;;;-144.99;51.65;52246.31;5014441;28;20230;-75
2021/06/22 10:26:47;;;;;;;8.10;3.67;;;;;;;-144.99;51.48;52244.28;5061553;28;20237;-76
2021/06/22 10:29:18;;;;;;;6.00;2.07;;;;;;;-144.99;51.19;52244.28;5019169;28;20210;-75
2021/06/22 10:31:45;;;;;;;4.77;2.03;;;;;;;-144.99;51.25;52252.44;5014033;28;20221;-77
2021/06/22 10:34:12;;;;;;;5.93;1.63;;;;;;;-144.99;50.89;52264.66;5022746;28;20223;-74
2021/06/22 10:36:46;;;;;;;5.70;2.20;;;;;;;-144.99;50.27;52236.13;5069996;27;20731;-75
2021/06/22 10:39:17;;;;;;;7.80;2.97;;;;;;;-144.99;50.44;52187.19;5027667;28;20230;-77
2021/06/22 10:41:46;;;;;;;6.53;3.20;;;;;;;-144.99;49.94;52236.13;5021571;28;20211;-76
2021/06/22 10:44:42;;;;;;;3.70;1.83;;;;;;;-144.99;49.71;52246.31;5019854;28;20785;-76
2021/06/22 10:47:33;;;;;;;9.97;1.70;;;;;;;-144.99;49.08;52215.75;5065849;27;20217;-78
2021/06/22 10:50:13;;;;;;;8.23;2.20;;;;;;;-144.99;49.13;52199.44;5032551;28;20212;-78
2021/06/22 10:53:01;;;;;;;7.90;3.57;;;;;;;-144.99;48.66;52170.91;5035747;27;20204;-73
2021/06/22 10:56:04;;;;;;;11.93;2.40;;;;;;;-144.99;46.90;52195.34;5025971;28;20232;-77
2021/06/22 10:58:32;;;;;;;9.10;2.30;;;;;;;-144.99;48.53;52219.81;5030251;28;20283;-75
2021/06/22 11:01:12;;;;;;;7.23;2.00;;;;;;;-144.99;48.38;52219.81;5039031;28;20307;-77
2021/06/22 11:03:39;;;;;;;7.37;2.60;;;;;;;-144.99;48.28;52240.19;5041488;27;20394;-76
2021/06/22 11:06:24;;;;;;;7.77;1.60;;;;;;;-144.99;48.80;52248.34;5034134;28;20219;-75
2021/06/22 11:08:52;;;;;;;6.33;1.77;;;;;;;-144.99;49.35;52264.66;5020829;28;20303;-76
2021/06/22 11:11:21;;;;;;;6.67;1.50;;;;;;;-144.99;48.91;52162.75;5030932;28;20217;-75
2021/06/22 11:13:53;;;;;;;7.90;2.83;;;;;;;-144.99;48.59;52181.09;5035420;27;20211;-75
2021/06/22 11:16:26;;;;;;;6.87;2.00;;;;;;;-144.99;48.30;52146.44;5027757;28;20239;-74
2021/06/22 11:19:07;;;;;;;6.27;1.47;;;;;;;-144.99;46.81;52138.28;5026919;28;20234;-77
2021/06/22 11:21:36;;;;;;;7.73;2.77;;;;;;;-144.99;46.42;52146.44;5015198;28;21038;-75